VTGOG VABB-VABV
Flight info
| Callsign | VTGOG |
|---|---|
| Flight time | 0h 38m |
| Altitude | 24000 |
| Route | ANOLI2A ISRIS W11 SUR W161 BVR |
| Aircraft | CL60/M-SADE3FGHIJ3J4J7P2RWXY/HB1D1 |
Departure
| Time | 2026-04-25 10:26 |
|---|---|
| Airport | Chhatrapati Shivaji Maharaj International Airport (VABB) |
Arrival
| Time | 2026-04-25 11:04 |
|---|---|
| Airport | Bhavnagar Airport (VABV) |
| Time | Latitude | Longitude | Altitude | Speed | Heading |
|---|---|---|---|---|---|
| 2026-04-25 09:59 | 19.08690 | 72.86165 | 43 ft | 0 kts | 173° |
| 2026-04-25 10:17 | 19.08689 | 72.86165 | 43 ft | 0 kts | 174° |
| 2026-04-25 10:18 | 19.08696 | 72.86164 | 43 ft | 2 kts | 173° |
| 2026-04-25 10:18 | 19.08711 | 72.86163 | 43 ft | 2 kts | 173° |
| 2026-04-25 10:18 | 19.08724 | 72.86161 | 43 ft | 0 kts | 173° |
| 2026-04-25 10:18 | 19.08734 | 72.86157 | 43 ft | 2 kts | 139° |
| 2026-04-25 10:19 | 19.08740 | 72.86144 | 43 ft | 1 kts | 91° |
| 2026-04-25 10:19 | 19.08740 | 72.86140 | 43 ft | 0 kts | 88° |
| 2026-04-25 10:21 | 19.08740 | 72.86141 | 43 ft | 1 kts | 88° |
| 2026-04-25 10:21 | 19.08741 | 72.86176 | 43 ft | 7 kts | 89° |
| 2026-04-25 10:22 | 19.08742 | 72.86251 | 43 ft | 13 kts | 89° |
| 2026-04-25 10:22 | 19.08745 | 72.86365 | 43 ft | 18 kts | 89° |
| 2026-04-25 10:22 | 19.08748 | 72.86489 | 43 ft | 14 kts | 89° |
| 2026-04-25 10:22 | 19.08737 | 72.86597 | 43 ft | 14 kts | 95° |
| 2026-04-25 10:23 | 19.08719 | 72.86689 | 43 ft | 11 kts | 132° |
| 2026-04-25 10:23 | 19.08699 | 72.86762 | 43 ft | 5 kts | 88° |
| 2026-04-25 10:23 | 19.08700 | 72.86823 | 43 ft | 10 kts | 89° |
| 2026-04-25 10:23 | 19.08701 | 72.86923 | 43 ft | 15 kts | 89° |
| 2026-04-25 10:24 | 19.08703 | 72.87057 | 43 ft | 20 kts | 89° |
| 2026-04-25 10:24 | 19.08717 | 72.87140 | 43 ft | 9 kts | 42° |
| 2026-04-25 10:24 | 19.08776 | 72.87135 | 43 ft | 7 kts | 320° |
| 2026-04-25 10:24 | 19.08831 | 72.87093 | 43 ft | 10 kts | 354° |
| 2026-04-25 10:25 | 19.08877 | 72.87070 | 43 ft | 9 kts | 265° |
| 2026-04-25 10:25 | 19.08877 | 72.87066 | 43 ft | 0 kts | 263° |
| 2026-04-25 10:25 | 19.08872 | 72.86938 | 43 ft | 62 kts | 269° |
| 2026-04-25 10:25 | 19.08861 | 72.86137 | 80 ft | 147 kts | 270° |
| 2026-04-25 10:26 | 19.08824 | 72.84951 | 669 ft | 174 kts | 270° |
| 2026-04-25 10:26 | 19.08743 | 72.83630 | 1514 ft | 190 kts | 269° |
| 2026-04-25 10:26 | 19.08625 | 72.82233 | 2457 ft | 200 kts | 269° |
| 2026-04-25 10:26 | 19.08513 | 72.80764 | 3451 ft | 208 kts | 269° |
| 2026-04-25 10:27 | 19.08418 | 72.79250 | 4467 ft | 214 kts | 269° |
| 2026-04-25 10:27 | 19.08332 | 72.77693 | 5486 ft | 218 kts | 269° |
| 2026-04-25 10:27 | 19.08258 | 72.76091 | 6513 ft | 222 kts | 269° |
| 2026-04-25 10:27 | 19.08330 | 72.74479 | 7506 ft | 224 kts | 285° |
| 2026-04-25 10:28 | 19.09066 | 72.73019 | 8144 ft | 241 kts | 315° |
| 2026-04-25 10:28 | 19.10479 | 72.71914 | 8660 ft | 268 kts | 339° |
| 2026-04-25 10:28 | 19.12383 | 72.71491 | 9188 ft | 287 kts | 6° |
| 2026-04-25 10:28 | 19.14394 | 72.71735 | 9600 ft | 296 kts | 11° |
| 2026-04-25 10:29 | 19.16458 | 72.72028 | 9740 ft | 296 kts | 10° |
| 2026-04-25 10:29 | 19.18516 | 72.72315 | 9760 ft | 295 kts | 10° |
| 2026-04-25 10:29 | 19.20528 | 72.72593 | 9831 ft | 291 kts | 10° |
| 2026-04-25 10:29 | 19.22566 | 72.72875 | 10276 ft | 296 kts | 10° |
| 2026-04-25 10:30 | 19.24685 | 72.73171 | 10781 ft | 314 kts | 10° |
| 2026-04-25 10:30 | 19.26899 | 72.73479 | 11283 ft | 325 kts | 10° |
| 2026-04-25 10:30 | 19.29180 | 72.73794 | 12086 ft | 336 kts | 10° |
| 2026-04-25 10:30 | 19.31490 | 72.74128 | 13225 ft | 336 kts | 11° |
| 2026-04-25 10:31 | 19.33780 | 72.74481 | 14278 ft | 338 kts | 11° |
| 2026-04-25 10:31 | 19.36122 | 72.74843 | 15291 ft | 340 kts | 10° |
| 2026-04-25 10:31 | 19.38479 | 72.75207 | 16218 ft | 345 kts | 11° |
| 2026-04-25 10:31 | 19.40864 | 72.75575 | 17123 ft | 349 kts | 10° |
| 2026-04-25 10:32 | 19.43280 | 72.75947 | 18012 ft | 353 kts | 10° |
| 2026-04-25 10:32 | 19.45724 | 72.76323 | 18840 ft | 358 kts | 10° |
| 2026-04-25 10:32 | 19.48203 | 72.76705 | 19634 ft | 362 kts | 10° |
| 2026-04-25 10:32 | 19.50734 | 72.77095 | 20420 ft | 367 kts | 10° |
| 2026-04-25 10:33 | 19.53268 | 72.77486 | 21228 ft | 371 kts | 10° |
| 2026-04-25 10:33 | 19.55841 | 72.77882 | 21980 ft | 375 kts | 10° |
| 2026-04-25 10:33 | 19.58441 | 72.78283 | 22726 ft | 379 kts | 10° |
| 2026-04-25 10:33 | 19.61107 | 72.78693 | 23392 ft | 385 kts | 9° |
| 2026-04-25 10:34 | 19.63781 | 72.79106 | 23698 ft | 400 kts | 9° |
| 2026-04-25 10:34 | 19.66664 | 72.79552 | 23755 ft | 420 kts | 9° |
| 2026-04-25 10:34 | 19.69607 | 72.80006 | 23750 ft | 434 kts | 9° |
| 2026-04-25 10:34 | 19.72609 | 72.80469 | 23745 ft | 436 kts | 9° |
| 2026-04-25 10:35 | 19.75611 | 72.80932 | 23749 ft | 433 kts | 9° |
| 2026-04-25 10:35 | 19.78620 | 72.81396 | 23750 ft | 430 kts | 9° |
| 2026-04-25 10:35 | 19.81581 | 72.81852 | 23752 ft | 428 kts | 9° |
| 2026-04-25 10:35 | 19.84523 | 72.82307 | 23757 ft | 428 kts | 9° |
| 2026-04-25 10:36 | 19.87507 | 72.82767 | 23761 ft | 428 kts | 9° |
| 2026-04-25 10:36 | 19.90457 | 72.83223 | 23767 ft | 428 kts | 9° |
| 2026-04-25 10:36 | 19.93423 | 72.83682 | 23763 ft | 427 kts | 9° |
| 2026-04-25 10:36 | 19.96365 | 72.84136 | 23765 ft | 427 kts | 9° |
| 2026-04-25 10:37 | 19.99317 | 72.84593 | 23775 ft | 426 kts | 9° |
| 2026-04-25 10:37 | 20.02254 | 72.85047 | 23770 ft | 426 kts | 9° |
| 2026-04-25 10:37 | 20.05197 | 72.85503 | 23773 ft | 426 kts | 9° |
| 2026-04-25 10:37 | 20.08134 | 72.85957 | 23776 ft | 426 kts | 9° |
| 2026-04-25 10:38 | 20.11092 | 72.86355 | 23776 ft | 426 kts | 8° |
| 2026-04-25 10:38 | 20.14060 | 72.86732 | 23778 ft | 427 kts | 8° |
| 2026-04-25 10:38 | 20.17035 | 72.87110 | 23770 ft | 427 kts | 8° |
| 2026-04-25 10:38 | 20.19992 | 72.87486 | 23762 ft | 427 kts | 8° |
| 2026-04-25 10:39 | 20.22940 | 72.87862 | 23764 ft | 426 kts | 8° |
| 2026-04-25 10:39 | 20.25896 | 72.88239 | 23755 ft | 425 kts | 8° |
| 2026-04-25 10:39 | 20.28854 | 72.88617 | 23752 ft | 425 kts | 8° |
| 2026-04-25 10:39 | 20.31794 | 72.88992 | 23756 ft | 424 kts | 8° |
| 2026-04-25 10:40 | 20.34733 | 72.89368 | 23755 ft | 424 kts | 8° |
| 2026-04-25 10:40 | 20.37671 | 72.89744 | 23757 ft | 424 kts | 8° |
| 2026-04-25 10:40 | 20.40644 | 72.90125 | 23758 ft | 424 kts | 8° |
| 2026-04-25 10:40 | 20.43576 | 72.90500 | 23751 ft | 424 kts | 8° |
| 2026-04-25 10:41 | 20.46501 | 72.90874 | 23754 ft | 423 kts | 8° |
| 2026-04-25 10:41 | 20.49437 | 72.91251 | 23750 ft | 423 kts | 8° |
| 2026-04-25 10:41 | 20.52410 | 72.91632 | 23751 ft | 423 kts | 8° |
| 2026-04-25 10:41 | 20.55347 | 72.92009 | 23750 ft | 423 kts | 8° |
| 2026-04-25 10:42 | 20.58244 | 72.92381 | 23752 ft | 422 kts | 8° |
| 2026-04-25 10:42 | 20.61188 | 72.92759 | 23752 ft | 422 kts | 8° |
| 2026-04-25 10:42 | 20.64109 | 72.93134 | 23746 ft | 422 kts | 8° |
| 2026-04-25 10:42 | 20.67049 | 72.93513 | 23746 ft | 422 kts | 8° |
| 2026-04-25 10:43 | 20.69964 | 72.93887 | 23747 ft | 422 kts | 8° |
| 2026-04-25 10:43 | 20.72913 | 72.94224 | 23744 ft | 422 kts | 4° |
| 2026-04-25 10:43 | 20.75867 | 72.93984 | 23753 ft | 425 kts | 349° |
| 2026-04-25 10:43 | 20.78669 | 72.92932 | 23747 ft | 429 kts | 335° |
| 2026-04-25 10:44 | 20.81320 | 72.91382 | 23737 ft | 430 kts | 333° |
| 2026-04-25 10:44 | 20.83937 | 72.89821 | 23745 ft | 430 kts | 333° |
| 2026-04-25 10:44 | 20.86560 | 72.88260 | 23755 ft | 430 kts | 333° |
| 2026-04-25 10:44 | 20.89184 | 72.86698 | 23670 ft | 432 kts | 333° |
| 2026-04-25 10:45 | 20.91830 | 72.85123 | 23254 ft | 435 kts | 333° |
| 2026-04-25 10:45 | 20.94465 | 72.83554 | 22803 ft | 429 kts | 333° |
| 2026-04-25 10:45 | 20.96520 | 72.82330 | 22450 ft | 425 kts | 333° |
| 2026-04-25 10:45 | 20.98992 | 72.80853 | 22022 ft | 422 kts | 333° |
| 2026-04-25 10:46 | 21.01563 | 72.79321 | 21553 ft | 419 kts | 333° |
| 2026-04-25 10:46 | 21.04119 | 72.77798 | 21086 ft | 416 kts | 333° |
| 2026-04-25 10:46 | 21.06640 | 72.76295 | 20635 ft | 413 kts | 333° |
| 2026-04-25 10:46 | 21.09160 | 72.74791 | 20178 ft | 411 kts | 333° |
| 2026-04-25 10:47 | 21.11629 | 72.73212 | 19735 ft | 407 kts | 326° |
| 2026-04-25 10:47 | 21.13861 | 72.71350 | 19284 ft | 408 kts | 323° |
| 2026-04-25 10:47 | 21.16091 | 72.69441 | 18844 ft | 406 kts | 323° |
| 2026-04-25 10:47 | 21.18290 | 72.67564 | 18393 ft | 404 kts | 323° |
| 2026-04-25 10:48 | 21.20491 | 72.65685 | 17952 ft | 402 kts | 323° |
| 2026-04-25 10:48 | 21.22695 | 72.63803 | 17501 ft | 400 kts | 323° |
| 2026-04-25 10:48 | 21.24873 | 72.61944 | 17056 ft | 397 kts | 323° |
| 2026-04-25 10:48 | 21.27033 | 72.60098 | 16609 ft | 393 kts | 323° |
| 2026-04-25 10:49 | 21.29161 | 72.58281 | 16168 ft | 388 kts | 323° |
| 2026-04-25 10:49 | 21.31259 | 72.56488 | 15747 ft | 381 kts | 323° |
| 2026-04-25 10:49 | 21.33329 | 72.54720 | 15323 ft | 374 kts | 323° |
| 2026-04-25 10:49 | 21.35360 | 72.52984 | 14884 ft | 368 kts | 323° |
| 2026-04-25 10:50 | 21.37336 | 72.51294 | 14527 ft | 359 kts | 322° |
| 2026-04-25 10:50 | 21.39283 | 72.49629 | 14091 ft | 355 kts | 322° |
| 2026-04-25 10:50 | 21.41192 | 72.47996 | 13728 ft | 347 kts | 322° |
| 2026-04-25 10:50 | 21.43088 | 72.46374 | 13326 ft | 340 kts | 322° |
| 2026-04-25 10:51 | 21.44917 | 72.44809 | 12970 ft | 334 kts | 322° |
| 2026-04-25 10:51 | 21.46739 | 72.43250 | 12591 ft | 329 kts | 322° |
| 2026-04-25 10:51 | 21.48519 | 72.41726 | 12230 ft | 321 kts | 322° |
| 2026-04-25 10:51 | 21.50241 | 72.40250 | 11897 ft | 315 kts | 322° |
| 2026-04-25 10:52 | 21.51948 | 72.38789 | 11532 ft | 310 kts | 322° |
| 2026-04-25 10:52 | 21.53639 | 72.37340 | 11193 ft | 304 kts | 322° |
| 2026-04-25 10:52 | 21.55282 | 72.35931 | 10865 ft | 299 kts | 322° |
| 2026-04-25 10:52 | 21.56899 | 72.34546 | 10541 ft | 295 kts | 321° |
| 2026-04-25 10:53 | 21.58495 | 72.33177 | 10208 ft | 290 kts | 321° |
| 2026-04-25 10:53 | 21.60056 | 72.31838 | 9893 ft | 284 kts | 321° |
| 2026-04-25 10:53 | 21.61595 | 72.30518 | 9569 ft | 280 kts | 321° |
| 2026-04-25 10:53 | 21.63113 | 72.29215 | 9273 ft | 276 kts | 321° |
| 2026-04-25 10:54 | 21.64615 | 72.27927 | 8949 ft | 271 kts | 321° |
| 2026-04-25 10:54 | 21.65592 | 72.27089 | 8766 ft | 268 kts | 321° |
| 2026-04-25 10:54 | 21.67521 | 72.25432 | 8374 ft | 263 kts | 321° |
| 2026-04-25 10:54 | 21.68945 | 72.24209 | 8087 ft | 259 kts | 321° |
| 2026-04-25 10:55 | 21.70363 | 72.22990 | 7802 ft | 255 kts | 321° |
| 2026-04-25 10:55 | 21.71702 | 72.21841 | 7646 ft | 238 kts | 321° |
| 2026-04-25 10:55 | 21.72956 | 72.20763 | 7475 ft | 220 kts | 321° |
| 2026-04-25 10:55 | 21.74106 | 72.19761 | 7259 ft | 206 kts | 318° |
| 2026-04-25 10:56 | 21.74917 | 72.18506 | 6835 ft | 203 kts | 290° |
| 2026-04-25 10:56 | 21.75088 | 72.17045 | 6604 ft | 193 kts | 272° |
| 2026-04-25 10:56 | 21.75101 | 72.15583 | 6345 ft | 198 kts | 273° |
| 2026-04-25 10:56 | 21.75124 | 72.14108 | 6106 ft | 191 kts | 273° |
| 2026-04-25 10:57 | 21.75147 | 72.12687 | 5592 ft | 194 kts | 273° |
| 2026-04-25 10:57 | 21.75171 | 72.11224 | 5072 ft | 195 kts | 273° |
| 2026-04-25 10:57 | 21.75193 | 72.09785 | 4608 ft | 194 kts | 273° |
| 2026-04-25 10:57 | 21.75216 | 72.08320 | 4131 ft | 194 kts | 273° |
| 2026-04-25 10:58 | 21.75238 | 72.06894 | 3680 ft | 193 kts | 272° |
| 2026-04-25 10:58 | 21.75260 | 72.05450 | 3206 ft | 193 kts | 272° |
| 2026-04-25 10:58 | 21.75283 | 72.04017 | 2783 ft | 190 kts | 272° |
| 2026-04-25 10:58 | 21.75302 | 72.02644 | 2551 ft | 177 kts | 272° |
| 2026-04-25 10:59 | 21.75053 | 72.01392 | 2209 ft | 175 kts | 237° |
| 2026-04-25 10:59 | 21.74022 | 72.00816 | 2041 ft | 171 kts | 177° |
| 2026-04-25 10:59 | 21.72861 | 72.01195 | 2082 ft | 178 kts | 152° |
| 2026-04-25 10:59 | 21.71812 | 72.01907 | 2073 ft | 179 kts | 140° |
| 2026-04-25 11:00 | 21.71070 | 72.02959 | 2055 ft | 177 kts | 110° |
| 2026-04-25 11:00 | 21.70896 | 72.04256 | 2056 ft | 174 kts | 81° |
| 2026-04-25 11:00 | 21.71189 | 72.05505 | 2065 ft | 172 kts | 70° |
| 2026-04-25 11:00 | 21.71555 | 72.06736 | 2065 ft | 172 kts | 71° |
| 2026-04-25 11:01 | 21.71914 | 72.07964 | 1917 ft | 173 kts | 71° |
| 2026-04-25 11:01 | 21.72256 | 72.09142 | 1678 ft | 150 kts | 71° |
| 2026-04-25 11:01 | 21.72550 | 72.10209 | 1494 ft | 148 kts | 73° |
| 2026-04-25 11:01 | 21.72791 | 72.11272 | 1240 ft | 143 kts | 76° |
| 2026-04-25 11:02 | 21.73017 | 72.12307 | 1036 ft | 142 kts | 75° |
| 2026-04-25 11:02 | 21.73271 | 72.13326 | 862 ft | 140 kts | 71° |
| 2026-04-25 11:02 | 21.73616 | 72.14312 | 720 ft | 140 kts | 67° |
| 2026-04-25 11:02 | 21.73984 | 72.15273 | 548 ft | 139 kts | 67° |
| 2026-04-25 11:03 | 21.74346 | 72.16245 | 371 ft | 139 kts | 68° |
| 2026-04-25 11:03 | 21.74701 | 72.17196 | 202 ft | 137 kts | 68° |
| 2026-04-25 11:03 | 21.75060 | 72.18149 | 53 ft | 133 kts | 68° |
| 2026-04-25 11:03 | 21.75359 | 72.18930 | 36 ft | 65 kts | 68° |
| 2026-04-25 11:04 | 21.75480 | 72.19241 | 31 ft | 30 kts | 67° |
| 2026-04-25 11:04 | 21.75530 | 72.19360 | 30 ft | 8 kts | 39° |
| 2026-04-25 11:04 | 21.75512 | 72.19378 | 30 ft | 12 kts | 254° |
| 2026-04-25 11:04 | 21.75498 | 72.19312 | 30 ft | 15 kts | 256° |
| 2026-04-25 11:05 | 21.75441 | 72.19147 | 32 ft | 20 kts | 247° |
| 2026-04-25 11:05 | 21.75383 | 72.18996 | 34 ft | 19 kts | 248° |
| 2026-04-25 11:05 | 21.75329 | 72.18855 | 36 ft | 22 kts | 248° |
| 2026-04-25 11:05 | 21.75267 | 72.18689 | 38 ft | 25 kts | 248° |
| 2026-04-25 11:06 | 21.75205 | 72.18528 | 38 ft | 15 kts | 247° |
| 2026-04-25 11:06 | 21.75204 | 72.18449 | 38 ft | 12 kts | 325° |
| 2026-04-25 11:06 | 21.75260 | 72.18424 | 38 ft | 5 kts | 338° |
| 2026-04-25 11:06 | 21.75290 | 72.18398 | 38 ft | 4 kts | 287° |
| 2026-04-25 11:07 | 21.75300 | 72.18356 | 38 ft | 2 kts | 317° |
| 2026-04-25 11:07 | 21.75317 | 72.18352 | 38 ft | 2 kts | 17° |
| 2026-04-25 11:07 | 21.75327 | 72.18363 | 38 ft | 0 kts | 66° |